Time;durP1;ratioP1;P1;durP2;ratioP2;P2;SDS_P1;SDS_P2;PMS_P1;PMS_P2;Temp;Humidity;BMP_temperature;BMP_pressure;BME280_temperature;BME280_humidity;BME280_pressure;Samples;Min_cycle;Max_cycle;Signal;HPM_P1;HPM_P2
2021/05/25 06:18:44;;;;;;;15.38;7.17;;;;;;;11.82;85.68;98750.70;4296541;77;46761;-83
2021/05/25 06:25:00;;;;;;;6.20;5.10;;;;;;;11.76;85.57;98750.09;4104595;85;21572;-83
2021/05/25 06:44:35;;;;;;;15.65;9.38;;;;;;;12.37;85.20;98734.07;4024058;85;21101;-84
2021/05/25 06:50:37;;;;;;;12.03;7.50;;;;;;;12.60;84.96;98724.86;4058483;85;21087;-84
2021/05/25 06:56:46;;;;;;;14.38;8.10;;;;;;;12.82;85.13;98720.10;4146293;84;21067;-84
2021/05/25 07:03:09;;;;;;;11.33;6.33;;;;;;;13.19;85.28;98724.53;4168382;85;21394;-84
2021/05/25 07:23:13;;;;;;;8.88;4.00;;;;;;;13.61;84.93;98737.30;4106499;85;21152;-84
2021/05/25 07:37:11;;;;;;;4.05;3.45;;;;;;;13.88;84.96;98734.20;4104718;85;21639;-84
2021/05/25 07:49:54;;;;;;;8.68;3.22;;;;;;;14.08;84.31;98756.67;4132199;85;21069;-84
2021/05/25 07:56:19;;;;;;;5.33;2.95;;;;;;;14.13;84.51;98766.47;4151829;83;21069;-84
2021/05/25 08:02:22;;;;;;;6.50;3.20;;;;;;;14.13;84.14;98767.27;4141259;85;21065;-84
2021/05/25 08:08:25;;;;;;;8.35;4.05;;;;;;;14.12;84.21;98767.08;4219961;84;21044;-84
2021/05/25 08:28:28;;;;;;;5.62;3.40;;;;;;;14.23;84.31;98776.64;4180147;83;21062;-85
2021/05/25 08:34:36;;;;;;;10.43;4.83;;;;;;;14.34;84.34;98776.59;4168190;85;21121;-85
2021/05/25 08:54:51;;;;;;;7.50;5.08;;;;;;;14.73;85.05;98803.22;4181758;85;21181;-86
2021/05/25 09:08:22;;;;;;;10.93;5.05;;;;;;;14.93;84.82;98833.16;4201551;84;21051;-86
2021/05/25 09:28:29;;;;;;;10.70;5.17;;;;;;;15.19;84.98;98833.92;4128082;84;21102;-83
2021/05/25 10:03:34;;;;;;;7.62;5.83;;;;;;;15.96;85.35;98833.66;3974386;87;21128;-85
2021/05/25 10:09:43;;;;;;;9.08;3.47;;;;;;;16.28;84.89;98829.26;3995059;86;21073;-84
2021/05/25 10:16:08;;;;;;;6.42;2.90;;;;;;;16.59;83.93;98821.11;4025636;86;21116;-85
2021/05/25 10:23:08;;;;;;;3.25;2.02;;;;;;;16.80;83.74;98827.67;3982274;85;21105;-84
2021/05/25 11:05:12;;;;;;;4.60;2.02;;;;;;;16.85;81.00;98840.26;4145238;84;21099;-84
2021/05/25 11:18:38;;;;;;;6.12;3.10;;;;;;;16.83;79.87;98853.71;4166977;82;21146;-85
2021/05/25 11:25:20;;;;;;;6.50;2.70;;;;;;;16.61;80.27;98862.15;4196824;83;21123;-83
2021/05/25 11:31:37;;;;;;;6.78;3.20;;;;;;;16.50;79.99;98865.67;4176833;83;21052;-83
2021/05/25 11:38:05;;;;;;;8.43;3.02;;;;;;;16.43;78.99;98865.73;4194176;83;21090;-82
2021/05/25 11:44:10;;;;;;;8.58;4.42;;;;;;;16.25;79.46;98872.11;4158468;83;21651;-83
2021/05/25 11:58:22;;;;;;;6.62;3.12;;;;;;;16.01;80.10;98874.00;4181580;83;21060;-84
2021/05/25 12:04:35;;;;;;;;;;;;;;;15.78;79.67;98904.25;4183309;83;21179;-83
2021/05/25 12:10:58;;;;;;;6.62;0.72;;;;;;;14.97;77.43;98939.44;4182174;83;20207;-84
2021/05/25 12:17:03;;;;;;;10.68;1.00;;;;;;;14.01;77.32;98963.15;4175869;83;21587;-83
2021/05/25 12:23:25;;;;;;;7.08;1.37;;;;;;;13.37;77.84;98982.90;4192364;83;21132;-84
2021/05/25 12:29:37;;;;;;;4.00;1.42;;;;;;;13.13;78.13;98998.79;4191053;83;21080;-84
2021/05/25 12:35:47;;;;;;;2.42;1.22;;;;;;;13.03;78.25;99003.09;4172593;83;21115;-84
2021/05/25 12:41:54;;;;;;;3.00;1.07;;;;;;;13.15;77.88;98986.82;4170043;83;21576;-82
2021/05/25 12:48:00;;;;;;;2.30;1.20;;;;;;;13.30;77.73;98990.55;4209073;83;21097;-84
2021/05/25 12:54:22;;;;;;;3.85;1.20;;;;;;;13.39;77.48;98988.19;4178931;83;21094;-84
2021/05/25 13:00:41;;;;;;;3.20;1.62;;;;;;;13.68;77.11;98995.25;4158982;83;21049;-83
2021/05/25 13:07:05;;;;;;;4.42;1.70;;;;;;;13.80;76.74;99008.59;4168257;82;21043;-84
2021/05/25 13:13:23;;;;;;;5.53;2.27;;;;;;;13.93;77.48;99006.21;4211490;83;21131;-83
2021/05/25 13:19:44;;;;;;;6.35;2.37;;;;;;;13.96;76.86;99011.71;4179685;83;21741;-81
2021/05/25 13:26:08;;;;;;;6.35;3.10;;;;;;;13.90;77.11;99013.30;4162799;83;21492;-83
2021/05/25 13:32:09;;;;;;;10.32;3.75;;;;;;;13.68;76.86;99011.77;4167760;84;21088;-83
2021/05/25 13:38:29;;;;;;;8.55;3.08;;;;;;;13.55;77.47;99033.96;4148683;84;21021;-84
2021/05/25 13:44:47;;;;;;;8.53;2.87;;;;;;;13.38;77.50;99047.13;4149869;84;21114;-83
2021/05/25 13:51:29;;;;;;;7.53;2.75;;;;;;;13.25;77.77;99054.77;4159473;84;21086;-81
2021/05/25 13:57:28;;;;;;;6.55;3.37;;;;;;;13.14;77.99;99051.98;4160635;84;21623;-83
2021/05/25 14:03:30;;;;;;;7.72;3.02;;;;;;;12.93;78.05;99045.64;4155976;84;21091;-83
2021/05/25 14:09:54;;;;;;;6.35;3.47;;;;;;;12.85;79.03;99068.77;4159330;84;21063;-84
2021/05/25 14:16:18;;;;;;;9.60;4.87;;;;;;;12.95;79.26;99077.64;4156647;84;21553;-84
2021/05/25 14:29:22;;;;;;;4.85;3.58;;;;;;;13.04;79.63;99058.27;4167723;82;21169;-84
2021/05/25 14:35:24;;;;;;;8.53;4.33;;;;;;;13.06;80.28;99058.64;4179854;83;21048;-84
2021/05/25 14:41:25;;;;;;;8.85;4.20;;;;;;;13.05;80.32;99063.95;4177560;83;21081;-84
2021/05/25 14:54:32;;;;;;;8.40;4.55;;;;;;;12.81;80.53;99046.77;4165262;83;21036;-84
2021/05/25 15:00:54;;;;;;;8.10;4.83;;;;;;;12.78;80.47;99051.67;4176022;83;21717;-83
2021/05/25 15:06:50;;;;;;;9.03;5.15;;;;;;;12.77;80.43;99057.55;4159323;83;21782;-84
2021/05/25 15:13:00;;;;;;;8.00;5.45;;;;;;;12.86;81.19;99053.88;4215764;80;39160;-84
2021/05/25 15:19:08;;;;;;;10.98;5.85;;;;;;;12.86;80.70;99053.88;4254729;83;21071;-84
2021/05/25 15:32:04;;;;;;;9.85;5.33;;;;;;;12.66;80.84;99045.17;4359824;80;21107;-83
2021/05/25 15:38:08;;;;;;;8.78;5.10;;;;;;;12.41;80.71;99045.66;4334438;80;21102;-84
2021/05/25 15:44:12;;;;;;;7.22;4.17;;;;;;;12.35;81.08;99045.25;4340471;80;21059;-84
2021/05/25 15:50:43;;;;;;;;;;;;;;;;;;;;;
2021/05/25 15:56:21;;;;;;;6.37;3.22;;;;;;;12.17;81.45;99023.77;4331698;80;21099;-84
2021/05/25 16:02:23;;;;;;;5.90;3.65;;;;;;;12.28;81.21;99025.19;4356308;80;21043;-84
2021/05/25 16:08:31;;;;;;;7.83;4.30;;;;;;;12.25;81.34;99028.70;4348376;80;21038;-83
2021/05/25 16:14:40;;;;;;;6.47;3.87;;;;;;;12.24;80.71;99034.80;4349663;80;21020;-83
2021/05/25 16:20:41;;;;;;;8.20;4.97;;;;;;;12.30;81.33;99031.09;4305683;81;21115;-83
2021/05/25 16:26:49;;;;;;;9.30;4.90;;;;;;;12.35;81.59;99023.86;4332968;80;21108;-83
2021/05/25 16:32:56;;;;;;;9.83;5.65;;;;;;;12.30;81.66;99044.23;4346745;80;21473;-83
2021/05/25 16:39:21;;;;;;;15.58;6.78;;;;;;;12.28;82.13;99067.16;4370499;80;21028;-83
2021/05/25 16:45:23;;;;;;;9.98;5.00;;;;;;;12.24;81.90;99073.23;4237729;82;21120;-82
2021/05/25 16:51:28;;;;;;;12.53;6.08;;;;;;;12.20;82.11;99067.52;4322841;80;21075;-84
2021/05/25 16:57:31;;;;;;;11.75;6.90;;;;;;;12.11;82.04;99065.10;4334541;80;21123;-83
2021/05/25 17:23:05;;;;;;;11.63;5.65;;;;;;;12.06;82.29;99066.03;4335685;80;21602;-83
2021/05/25 17:29:15;;;;;;;14.33;7.05;;;;;;;12.05;82.09;99069.38;4349700;80;21075;-83
2021/05/25 17:35:28;;;;;;;15.98;7.53;;;;;;;12.04;82.23;99072.51;4351763;80;21055;-83
2021/05/25 17:41:35;;;;;;;15.95;8.63;;;;;;;11.90;82.18;99089.64;4353473;80;21565;-83
2021/05/25 17:47:43;;;;;;;16.10;7.72;;;;;;;11.73;82.43;99110.86;4321738;80;21371;-82
2021/05/25 17:53:45;;;;;;;14.50;7.62;;;;;;;11.63;82.85;99102.56;4344453;80;21043;-83
2021/05/25 17:59:53;;;;;;;15.15;7.35;;;;;;;11.60;83.05;99121.91;4331404;80;21440;-82
2021/05/25 18:05:59;;;;;;;12.58;7.08;;;;;;;11.56;82.94;99134.78;4197823;83;21661;-83
2021/05/25 18:12:09;;;;;;;14.03;6.90;;;;;;;11.55;82.59;99129.10;4177683;83;21546;-83
2021/05/25 18:18:12;;;;;;;14.95;7.33;;;;;;;11.64;82.35;99120.58;4333926;80;21118;-83
2021/05/25 18:24:16;;;;;;;11.97;6.87;;;;;;;11.63;82.12;99120.38;4331388;80;21066;-83
2021/05/25 18:30:20;;;;;;;12.37;7.33;;;;;;;11.64;82.31;99121.38;4310376;80;21048;-83
2021/05/25 18:42:37;;;;;;;11.43;6.35;;;;;;;11.40;81.97;99090.97;4334150;80;21048;-82
2021/05/25 18:48:38;;;;;;;11.40;7.87;;;;;;;11.43;82.47;99124.48;4334730;80;21039;-84
2021/05/25 18:54:40;;;;;;;12.45;7.37;;;;;;;11.38;82.13;99122.08;4340111;80;21459;-83
2021/05/25 19:00:42;;;;;;;12.43;7.45;;;;;;;11.34;82.82;99133.59;4348651;80;21617;-82
2021/05/25 19:06:44;;;;;;;11.78;6.45;;;;;;;11.19;82.58;99152.41;4316176;80;21087;-83
2021/05/25 19:12:46;;;;;;;13.65;8.23;;;;;;;11.24;83.12;99160.30;4327125;80;21023;-83
2021/05/25 19:18:48;;;;;;;14.07;8.20;;;;;;;11.21;82.72;99169.27;4337101;80;21058;-83
2021/05/25 19:24:58;;;;;;;10.65;6.87;;;;;;;11.17;83.14;99167.84;4300545;80;21096;-83
2021/05/25 19:31:04;;;;;;;16.30;7.92;;;;;;;11.17;83.02;99169.79;4372292;80;21106;-82
2021/05/25 19:37:08;;;;;;;14.68;8.70;;;;;;;11.14;83.08;99161.75;4345259;79;21039;-83
2021/05/25 19:43:21;;;;;;;17.52;8.05;;;;;;;11.04;82.81;99169.25;4338478;80;21103;-82
2021/05/25 19:49:26;;;;;;;19.80;8.20;;;;;;;10.87;82.57;99173.36;4348862;80;21050;-82
2021/05/25 19:55:30;;;;;;;17.25;7.83;;;;;;;10.86;82.99;99181.95;4333994;80;21592;-83
2021/05/25 20:01:32;;;;;;;15.23;8.10;;;;;;;10.74;82.81;99177.48;4346039;80;21063;-83
2021/05/25 20:07:42;;;;;;;16.75;7.45;;;;;;;10.72;82.88;99196.83;4332362;80;21062;-83
2021/05/25 20:13:44;;;;;;;16.82;8.48;;;;;;;10.54;83.00;99193.84;4187953;83;21642;-82
2021/05/25 20:19:51;;;;;;;21.93;9.03;;;;;;;10.47;82.70;99188.28;4342076;80;21078;-83
2021/05/25 20:25:52;;;;;;;;;;;;;;;10.29;82.85;99183.70;4337216;80;21059;-83
2021/05/25 20:31:53;;;;;;;16.30;8.75;;;;;;;10.29;83.41;99183.11;4339904;80;20195;-82
2021/05/25 20:37:55;;;;;;;19.40;9.08;;;;;;;10.22;83.36;99194.52;4319407;80;21851;-82
2021/05/25 20:44:02;;;;;;;20.82;9.28;;;;;;;10.27;83.53;99187.38;4348524;80;21032;-83
2021/05/25 20:50:03;;;;;;;20.43;8.60;;;;;;;10.27;83.29;99179.17;4323121;80;21059;-83
2021/05/25 20:56:05;;;;;;;14.00;7.83;;;;;;;10.26;83.29;99184.41;4333429;80;21043;-82
2021/05/25 21:02:07;;;;;;;15.50;7.17;;;;;;;10.06;82.63;99193.84;4355295;80;21123;-82
2021/05/25 21:08:14;;;;;;;12.47;7.30;;;;;;;9.95;83.29;99203.25;4343799;80;21602;-82
2021/05/25 21:14:19;;;;;;;16.70;6.80;;;;;;;9.88;83.29;99205.84;4320106;80;20973;-82
2021/05/25 21:20:22;;;;;;;15.23;7.33;;;;;;;9.80;83.45;99211.58;4323056;80;21084;-82
2021/05/25 21:26:24;;;;;;;12.68;6.05;;;;;;;9.77;83.44;99221.88;4311876;80;21044;-80
2021/05/25 21:32:25;;;;;;;11.05;6.05;;;;;;;9.33;83.09;99229.64;4337422;80;21086;-82
2021/05/25 21:38:27;;;;;;;12.65;5.35;;;;;;;8.96;83.47;99236.09;4338731;80;21038;-82
2021/05/25 21:44:35;;;;;;;15.43;5.47;;;;;;;8.87;83.68;99238.25;4346649;80;20999;-82
2021/05/25 21:50:42;;;;;;;10.50;4.50;;;;;;;8.97;84.28;99243.13;4342127;80;21111;-82
2021/05/25 21:56:44;;;;;;;9.40;4.35;;;;;;;9.04;83.50;99239.77;4346587;80;21040;-82
2021/05/25 22:03:30;;;;;;;12.13;4.97;;;;;;;8.90;83.64;99241.63;4355052;80;21090;-82
2021/05/25 22:09:40;;;;;;;10.72;4.45;;;;;;;8.96;83.39;99236.09;4362272;80;21087;-82
2021/05/25 22:15:43;;;;;;;7.47;4.35;;;;;;;8.76;83.43;99241.89;4362038;80;21060;-83
2021/05/25 22:21:49;;;;;;;8.13;4.15;;;;;;;8.71;84.05;99237.50;4360992;80;21091;-82
2021/05/25 22:27:53;;;;;;;6.75;3.55;;;;;;;8.60;83.67;99234.31;4349700;80;21024;-83
2021/05/25 22:33:56;;;;;;;7.33;3.50;;;;;;;8.72;84.28;99236.94;4340365;80;21052;-82
2021/05/25 22:39:58;;;;;;;10.35;3.58;;;;;;;8.67;83.55;99229.83;4344809;79;21686;-82
2021/05/25 22:45:59;;;;;;;5.67;3.42;;;;;;;8.52;84.10;99247.00;4334981;80;21338;-82
2021/05/25 22:52:02;;;;;;;5.60;2.60;;;;;;;8.50;84.13;99240.33;4335120;80;21066;-82
2021/05/25 22:58:04;;;;;;;6.28;2.77;;;;;;;8.31;83.95;99236.17;4358717;80;21674;-82
2021/05/25 23:04:05;;;;;;;6.35;2.65;;;;;;;8.21;84.17;99233.94;4318999;81;21072;-82
2021/05/25 23:10:11;;;;;;;7.42;3.10;;;;;;;8.11;84.34;99238.59;4340993;81;21079;-83
2021/05/25 23:16:14;;;;;;;9.80;2.33;;;;;;;8.09;84.39;99245.75;4354122;81;21092;-82
2021/05/25 23:22:15;;;;;;;10.50;2.25;;;;;;;8.09;84.19;99245.75;4334019;81;21024;-83
2021/05/25 23:28:16;;;;;;;5.70;2.72;;;;;;;8.19;84.36;99254.75;4343887;81;21071;-82
2021/05/25 23:34:18;;;;;;;3.95;2.15;;;;;;;8.24;84.71;99251.02;4329713;81;21091;-82
2021/05/25 23:40:25;;;;;;;5.87;2.67;;;;;;;8.24;84.54;99246.93;4339058;81;21092;-82
2021/05/25 23:46:26;;;;;;;4.58;2.50;;;;;;;8.13;84.51;99262.98;4332630;80;21134;-82
2021/05/25 23:52:27;;;;;;;5.80;2.52;;;;;;;8.18;84.70;99270.10;4323144;81;21079;-83
2021/05/25 23:58:40;;;;;;;8.23;2.85;;;;;;;8.11;84.76;99265.85;4335353;81;21571;-82
